N3368K KAVL-KOGB
Flight info
| Callsign | N3368K |
|---|---|
| Flight time | 0h 55m |
| Altitude | 7000 |
| Route | SUG JOOLS |
| Aircraft | BE36/L-BDFGLORY/S |
Departure
| Time | 2026-05-04 13:21 |
|---|---|
| Airport | Asheville Regional Airport (KAVL) |
Arrival
| Time | 2026-05-04 14:17 |
|---|---|
| Airport | Orangeburg Municipal Airport (KOGB) |
| Time | Latitude | Longitude | Altitude | Speed | Heading |
|---|---|---|---|---|---|
| 2026-05-04 13:11 | 35.43941 | -82.54054 | 2159 ft | 0 kts | 71° |
| 2026-05-04 13:16 | 35.43923 | -82.54032 | 2157 ft | 10 kts | 176° |
| 2026-05-04 13:16 | 35.43878 | -82.54104 | 2158 ft | 14 kts | 251° |
| 2026-05-04 13:17 | 35.43799 | -82.54148 | 2157 ft | 15 kts | 160° |
| 2026-05-04 13:17 | 35.43684 | -82.54096 | 2154 ft | 20 kts | 160° |
| 2026-05-04 13:17 | 35.43543 | -82.54032 | 2150 ft | 23 kts | 160° |
| 2026-05-04 13:17 | 35.43382 | -82.53959 | 2146 ft | 26 kts | 160° |
| 2026-05-04 13:18 | 35.43208 | -82.53881 | 2142 ft | 27 kts | 160° |
| 2026-05-04 13:18 | 35.43027 | -82.53801 | 2138 ft | 27 kts | 159° |
| 2026-05-04 13:18 | 35.42846 | -82.53719 | 2133 ft | 28 kts | 161° |
| 2026-05-04 13:18 | 35.42698 | -82.53674 | 2130 ft | 12 kts | 212° |
| 2026-05-04 13:19 | 35.42687 | -82.53686 | 2130 ft | 0 kts | 230° |
| 2026-05-04 13:19 | 35.42677 | -82.53705 | 2130 ft | 9 kts | 246° |
| 2026-05-04 13:19 | 35.42676 | -82.53786 | 2131 ft | 9 kts | 334° |
| 2026-05-04 13:19 | 35.42680 | -82.53788 | 2131 ft | 0 kts | 338° |
| 2026-05-04 13:20 | 35.42707 | -82.53800 | 2131 ft | 26 kts | 340° |
| 2026-05-04 13:20 | 35.43100 | -82.53980 | 2156 ft | 87 kts | 339° |
| 2026-05-04 13:20 | 35.43749 | -82.54305 | 2313 ft | 111 kts | 336° |
| 2026-05-04 13:21 | 35.44515 | -82.54691 | 2604 ft | 123 kts | 338° |
| 2026-05-04 13:21 | 35.45337 | -82.54837 | 3040 ft | 123 kts | 21° |
| 2026-05-04 13:21 | 35.45808 | -82.54035 | 3425 ft | 126 kts | 86° |
| 2026-05-04 13:21 | 35.45646 | -82.52960 | 3726 ft | 130 kts | 102° |
| 2026-05-04 13:22 | 35.45452 | -82.51860 | 4082 ft | 133 kts | 102° |
| 2026-05-04 13:22 | 35.45244 | -82.50760 | 4463 ft | 134 kts | 104° |
| 2026-05-04 13:22 | 35.45007 | -82.49636 | 4768 ft | 137 kts | 101° |
| 2026-05-04 13:22 | 35.44812 | -82.48487 | 5045 ft | 139 kts | 102° |
| 2026-05-04 13:23 | 35.44586 | -82.47332 | 5373 ft | 140 kts | 104° |
| 2026-05-04 13:23 | 35.44359 | -82.46159 | 5661 ft | 143 kts | 102° |
| 2026-05-04 13:23 | 35.44132 | -82.44967 | 5946 ft | 144 kts | 103° |
| 2026-05-04 13:23 | 35.43906 | -82.43768 | 6251 ft | 145 kts | 101° |
| 2026-05-04 13:24 | 35.43672 | -82.42553 | 6541 ft | 148 kts | 103° |
| 2026-05-04 13:24 | 35.43433 | -82.41324 | 6824 ft | 149 kts | 103° |
| 2026-05-04 13:24 | 35.43192 | -82.40074 | 6946 ft | 162 kts | 105° |
| 2026-05-04 13:25 | 35.42633 | -82.37165 | 6956 ft | 183 kts | 104° |
| 2026-05-04 13:25 | 35.42338 | -82.35639 | 6957 ft | 189 kts | 104° |
| 2026-05-04 13:25 | 35.42037 | -82.34055 | 6962 ft | 193 kts | 103° |
| 2026-05-04 13:25 | 35.41729 | -82.32430 | 6956 ft | 197 kts | 103° |
| 2026-05-04 13:26 | 35.41425 | -82.30798 | 6962 ft | 196 kts | 104° |
| 2026-05-04 13:26 | 35.41097 | -82.29169 | 6962 ft | 196 kts | 104° |
| 2026-05-04 13:26 | 35.40676 | -82.27585 | 6967 ft | 196 kts | 120° |
| 2026-05-04 13:26 | 35.39813 | -82.26324 | 6954 ft | 191 kts | 144° |
| 2026-05-04 13:27 | 35.38716 | -82.25448 | 6961 ft | 186 kts | 153° |
| 2026-05-04 13:27 | 35.37620 | -82.24640 | 6957 ft | 181 kts | 153° |
| 2026-05-04 13:27 | 35.36545 | -82.23860 | 6955 ft | 178 kts | 154° |
| 2026-05-04 13:27 | 35.35486 | -82.23085 | 6959 ft | 180 kts | 154° |
| 2026-05-04 13:28 | 35.34415 | -82.22303 | 6961 ft | 179 kts | 153° |
| 2026-05-04 13:28 | 35.33346 | -82.21519 | 6955 ft | 178 kts | 154° |
| 2026-05-04 13:28 | 35.32281 | -82.20744 | 6960 ft | 178 kts | 154° |
| 2026-05-04 13:28 | 35.31217 | -82.19969 | 6954 ft | 178 kts | 154° |
| 2026-05-04 13:29 | 35.30154 | -82.19192 | 6953 ft | 179 kts | 154° |
| 2026-05-04 13:29 | 35.29104 | -82.18411 | 6963 ft | 174 kts | 153° |
| 2026-05-04 13:29 | 35.28054 | -82.17661 | 6964 ft | 175 kts | 154° |
| 2026-05-04 13:29 | 35.27001 | -82.16899 | 6964 ft | 176 kts | 154° |
| 2026-05-04 13:30 | 35.25948 | -82.16128 | 6961 ft | 177 kts | 154° |
| 2026-05-04 13:30 | 35.24893 | -82.15357 | 6960 ft | 177 kts | 154° |
| 2026-05-04 13:30 | 35.23837 | -82.14587 | 6956 ft | 176 kts | 152° |
| 2026-05-04 13:30 | 35.22799 | -82.13830 | 6956 ft | 176 kts | 152° |
| 2026-05-04 13:31 | 35.21749 | -82.13068 | 6956 ft | 175 kts | 152° |
| 2026-05-04 13:31 | 35.20700 | -82.12304 | 6954 ft | 175 kts | 152° |
| 2026-05-04 13:31 | 35.19656 | -82.11542 | 6955 ft | 175 kts | 152° |
| 2026-05-04 13:31 | 35.18608 | -82.10780 | 6951 ft | 175 kts | 152° |
| 2026-05-04 13:32 | 35.17557 | -82.10018 | 6949 ft | 176 kts | 153° |
| 2026-05-04 13:32 | 35.16508 | -82.09254 | 6947 ft | 175 kts | 152° |
| 2026-05-04 13:32 | 35.15462 | -82.08489 | 6947 ft | 175 kts | 152° |
| 2026-05-04 13:32 | 35.14416 | -82.07733 | 6948 ft | 175 kts | 153° |
| 2026-05-04 13:33 | 35.13364 | -82.06967 | 6951 ft | 177 kts | 152° |
| 2026-05-04 13:33 | 35.12306 | -82.06202 | 6956 ft | 177 kts | 153° |
| 2026-05-04 13:33 | 35.11246 | -82.05431 | 6956 ft | 177 kts | 152° |
| 2026-05-04 13:33 | 35.10183 | -82.04662 | 6955 ft | 177 kts | 152° |
| 2026-05-04 13:34 | 35.09131 | -82.03898 | 6964 ft | 176 kts | 152° |
| 2026-05-04 13:34 | 35.08067 | -82.03128 | 6957 ft | 177 kts | 152° |
| 2026-05-04 13:34 | 35.07021 | -82.02364 | 6959 ft | 176 kts | 152° |
| 2026-05-04 13:34 | 35.05967 | -82.01599 | 6961 ft | 176 kts | 153° |
| 2026-05-04 13:35 | 35.04912 | -82.00839 | 6967 ft | 177 kts | 152° |
| 2026-05-04 13:35 | 35.02800 | -81.99311 | 6974 ft | 176 kts | 152° |
| 2026-05-04 13:35 | 35.01739 | -81.98545 | 6970 ft | 177 kts | 152° |
| 2026-05-04 13:36 | 35.00684 | -81.97776 | 6977 ft | 176 kts | 152° |
| 2026-05-04 13:36 | 34.99619 | -81.97009 | 6977 ft | 179 kts | 153° |
| 2026-05-04 13:36 | 34.98548 | -81.96230 | 6971 ft | 179 kts | 152° |
| 2026-05-04 13:36 | 34.97486 | -81.95462 | 6966 ft | 176 kts | 152° |
| 2026-05-04 13:37 | 34.96437 | -81.94705 | 6971 ft | 177 kts | 152° |
| 2026-05-04 13:37 | 34.95378 | -81.93940 | 6971 ft | 177 kts | 152° |
| 2026-05-04 13:37 | 34.94316 | -81.93173 | 6971 ft | 178 kts | 152° |
| 2026-05-04 13:37 | 34.93615 | -81.92667 | 6972 ft | 177 kts | 152° |
| 2026-05-04 13:38 | 34.92194 | -81.91642 | 6968 ft | 177 kts | 152° |
| 2026-05-04 13:38 | 34.91139 | -81.90882 | 6971 ft | 176 kts | 152° |
| 2026-05-04 13:38 | 34.90089 | -81.90121 | 6973 ft | 176 kts | 152° |
| 2026-05-04 13:38 | 34.89046 | -81.89370 | 6969 ft | 176 kts | 153° |
| 2026-05-04 13:39 | 34.87981 | -81.88600 | 6971 ft | 176 kts | 152° |
| 2026-05-04 13:39 | 34.86942 | -81.87855 | 6966 ft | 175 kts | 152° |
| 2026-05-04 13:39 | 34.85881 | -81.87089 | 6965 ft | 175 kts | 152° |
| 2026-05-04 13:39 | 34.84835 | -81.86334 | 6964 ft | 174 kts | 152° |
| 2026-05-04 13:40 | 34.83800 | -81.85590 | 6963 ft | 174 kts | 152° |
| 2026-05-04 13:40 | 34.82758 | -81.84839 | 6963 ft | 174 kts | 152° |
| 2026-05-04 13:40 | 34.81716 | -81.84089 | 6961 ft | 174 kts | 153° |
| 2026-05-04 13:40 | 34.80672 | -81.83339 | 6959 ft | 175 kts | 153° |
| 2026-05-04 13:41 | 34.79626 | -81.82587 | 6967 ft | 175 kts | 152° |
| 2026-05-04 13:41 | 34.78574 | -81.81828 | 6958 ft | 175 kts | 152° |
| 2026-05-04 13:41 | 34.77531 | -81.81078 | 6957 ft | 174 kts | 152° |
| 2026-05-04 13:42 | 34.75442 | -81.79577 | 6958 ft | 174 kts | 152° |
| 2026-05-04 13:42 | 34.74400 | -81.78829 | 6956 ft | 174 kts | 153° |
| 2026-05-04 13:42 | 34.73362 | -81.78084 | 6954 ft | 173 kts | 152° |
| 2026-05-04 13:42 | 34.72326 | -81.77340 | 6955 ft | 173 kts | 153° |
| 2026-05-04 13:43 | 34.71289 | -81.76596 | 6951 ft | 173 kts | 152° |
| 2026-05-04 13:43 | 34.70256 | -81.75854 | 6961 ft | 172 kts | 152° |
| 2026-05-04 13:43 | 34.69224 | -81.75114 | 6963 ft | 173 kts | 152° |
| 2026-05-04 13:43 | 34.68180 | -81.74367 | 6960 ft | 174 kts | 152° |
| 2026-05-04 13:44 | 34.67139 | -81.73620 | 6963 ft | 174 kts | 152° |
| 2026-05-04 13:44 | 34.66094 | -81.72872 | 6962 ft | 174 kts | 152° |
| 2026-05-04 13:44 | 34.65064 | -81.72134 | 6967 ft | 174 kts | 152° |
| 2026-05-04 13:44 | 34.64020 | -81.71386 | 6968 ft | 174 kts | 152° |
| 2026-05-04 13:45 | 34.62981 | -81.70642 | 6966 ft | 174 kts | 152° |
| 2026-05-04 13:45 | 34.61940 | -81.69896 | 6966 ft | 174 kts | 152° |
| 2026-05-04 13:45 | 34.60897 | -81.69151 | 6966 ft | 174 kts | 152° |
| 2026-05-04 13:45 | 34.59853 | -81.68403 | 6965 ft | 174 kts | 152° |
| 2026-05-04 13:46 | 34.58811 | -81.67659 | 6967 ft | 174 kts | 152° |
| 2026-05-04 13:46 | 34.57769 | -81.66913 | 6971 ft | 173 kts | 152° |
| 2026-05-04 13:46 | 34.56729 | -81.66171 | 6970 ft | 173 kts | 152° |
| 2026-05-04 13:46 | 34.55690 | -81.65427 | 6969 ft | 173 kts | 152° |
| 2026-05-04 13:47 | 34.54651 | -81.64686 | 6969 ft | 173 kts | 152° |
| 2026-05-04 13:47 | 34.53616 | -81.63947 | 6969 ft | 173 kts | 152° |
| 2026-05-04 13:47 | 34.52577 | -81.63204 | 6969 ft | 173 kts | 152° |
| 2026-05-04 13:47 | 34.51551 | -81.62473 | 6972 ft | 174 kts | 152° |
| 2026-05-04 13:48 | 34.50533 | -81.61653 | 6972 ft | 174 kts | 143° |
| 2026-05-04 13:48 | 34.49591 | -81.60701 | 6968 ft | 177 kts | 143° |
| 2026-05-04 13:48 | 34.48639 | -81.59759 | 6972 ft | 177 kts | 142° |
| 2026-05-04 13:48 | 34.47687 | -81.58812 | 6964 ft | 177 kts | 143° |
| 2026-05-04 13:49 | 34.46751 | -81.57889 | 6963 ft | 175 kts | 143° |
| 2026-05-04 13:49 | 34.45807 | -81.56955 | 6962 ft | 174 kts | 143° |
| 2026-05-04 13:49 | 34.44871 | -81.56028 | 6958 ft | 173 kts | 143° |
| 2026-05-04 13:49 | 34.43936 | -81.55106 | 6956 ft | 173 kts | 142° |
| 2026-05-04 13:50 | 34.43000 | -81.54181 | 6955 ft | 174 kts | 143° |
| 2026-05-04 13:50 | 34.42063 | -81.53254 | 6955 ft | 174 kts | 142° |
| 2026-05-04 13:50 | 34.41440 | -81.52639 | 6956 ft | 175 kts | 143° |
| 2026-05-04 13:50 | 34.40492 | -81.51703 | 6963 ft | 177 kts | 143° |
| 2026-05-04 13:51 | 34.39536 | -81.50760 | 6958 ft | 177 kts | 143° |
| 2026-05-04 13:51 | 34.38586 | -81.49822 | 6957 ft | 176 kts | 143° |
| 2026-05-04 13:51 | 34.37637 | -81.48885 | 6959 ft | 176 kts | 143° |
| 2026-05-04 13:51 | 34.36689 | -81.47952 | 6958 ft | 176 kts | 143° |
| 2026-05-04 13:52 | 34.34778 | -81.46063 | 6962 ft | 177 kts | 143° |
| 2026-05-04 13:52 | 34.33818 | -81.45124 | 6965 ft | 177 kts | 143° |
| 2026-05-04 13:52 | 34.32862 | -81.44182 | 6972 ft | 177 kts | 143° |
| 2026-05-04 13:53 | 34.31899 | -81.43239 | 6969 ft | 178 kts | 143° |
| 2026-05-04 13:53 | 34.30941 | -81.42283 | 6976 ft | 180 kts | 143° |
| 2026-05-04 13:53 | 34.29975 | -81.41333 | 6969 ft | 178 kts | 143° |
| 2026-05-04 13:54 | 34.28056 | -81.39449 | 6971 ft | 177 kts | 143° |
| 2026-05-04 13:54 | 34.27102 | -81.38508 | 6970 ft | 176 kts | 143° |
| 2026-05-04 13:54 | 34.25212 | -81.36656 | 6971 ft | 176 kts | 143° |
| 2026-05-04 13:55 | 34.24263 | -81.35720 | 6970 ft | 176 kts | 143° |
| 2026-05-04 13:55 | 34.22365 | -81.33856 | 6967 ft | 175 kts | 143° |
| 2026-05-04 13:55 | 34.21419 | -81.32929 | 6970 ft | 175 kts | 143° |
| 2026-05-04 13:56 | 34.20470 | -81.31998 | 6969 ft | 175 kts | 143° |
| 2026-05-04 13:56 | 34.19526 | -81.31070 | 6969 ft | 175 kts | 143° |
| 2026-05-04 13:56 | 34.17637 | -81.29218 | 6971 ft | 175 kts | 143° |
| 2026-05-04 13:57 | 34.16695 | -81.28297 | 6971 ft | 174 kts | 143° |
| 2026-05-04 13:57 | 34.15757 | -81.27377 | 6970 ft | 173 kts | 142° |
| 2026-05-04 13:58 | 34.12956 | -81.24636 | 6973 ft | 173 kts | 143° |
| 2026-05-04 13:58 | 34.11081 | -81.22794 | 6981 ft | 174 kts | 142° |
| 2026-05-04 13:58 | 34.10140 | -81.21874 | 6985 ft | 175 kts | 142° |
| 2026-05-04 13:59 | 34.09191 | -81.20951 | 6980 ft | 175 kts | 143° |
| 2026-05-04 13:59 | 34.08244 | -81.20026 | 6979 ft | 175 kts | 143° |
| 2026-05-04 13:59 | 34.06362 | -81.18187 | 6980 ft | 174 kts | 143° |
| 2026-05-04 14:00 | 34.05420 | -81.17266 | 6981 ft | 175 kts | 143° |
| 2026-05-04 14:00 | 34.03533 | -81.15423 | 6984 ft | 174 kts | 143° |
| 2026-05-04 14:00 | 34.02590 | -81.14504 | 6984 ft | 174 kts | 143° |
| 2026-05-04 14:01 | 34.01644 | -81.13581 | 6991 ft | 176 kts | 143° |
| 2026-05-04 14:01 | 34.00695 | -81.12654 | 6992 ft | 176 kts | 142° |
| 2026-05-04 14:01 | 33.98795 | -81.10809 | 6981 ft | 175 kts | 143° |
| 2026-05-04 14:02 | 33.97842 | -81.09883 | 6982 ft | 176 kts | 142° |
| 2026-05-04 14:02 | 33.96901 | -81.08957 | 6983 ft | 174 kts | 142° |
| 2026-05-04 14:02 | 33.95956 | -81.08036 | 6976 ft | 174 kts | 143° |
| 2026-05-04 14:02 | 33.95013 | -81.07114 | 6981 ft | 174 kts | 143° |
| 2026-05-04 14:03 | 33.94066 | -81.06200 | 6977 ft | 174 kts | 143° |
| 2026-05-04 14:03 | 33.93126 | -81.05289 | 6978 ft | 173 kts | 143° |
| 2026-05-04 14:03 | 33.92191 | -81.04379 | 6986 ft | 172 kts | 143° |
| 2026-05-04 14:03 | 33.91258 | -81.03476 | 6986 ft | 172 kts | 142° |
| 2026-05-04 14:04 | 33.89415 | -81.01669 | 6989 ft | 172 kts | 143° |
| 2026-05-04 14:04 | 33.88479 | -81.00769 | 6993 ft | 173 kts | 142° |
| 2026-05-04 14:04 | 33.87537 | -80.99858 | 6986 ft | 173 kts | 142° |
| 2026-05-04 14:05 | 33.85653 | -80.98025 | 6984 ft | 174 kts | 142° |
| 2026-05-04 14:05 | 33.84716 | -80.97113 | 6984 ft | 173 kts | 142° |
| 2026-05-04 14:05 | 33.83778 | -80.96205 | 6985 ft | 174 kts | 142° |
| 2026-05-04 14:06 | 33.82837 | -80.95292 | 6983 ft | 173 kts | 142° |
| 2026-05-04 14:06 | 33.81900 | -80.94381 | 6965 ft | 173 kts | 142° |
| 2026-05-04 14:06 | 33.80965 | -80.93478 | 6969 ft | 172 kts | 142° |
| 2026-05-04 14:06 | 33.80035 | -80.92580 | 6972 ft | 171 kts | 142° |
| 2026-05-04 14:07 | 33.79084 | -80.91653 | 6802 ft | 181 kts | 142° |
| 2026-05-04 14:07 | 33.78075 | -80.90685 | 6551 ft | 191 kts | 143° |
| 2026-05-04 14:07 | 33.77015 | -80.89651 | 6254 ft | 198 kts | 142° |
| 2026-05-04 14:07 | 33.75937 | -80.88613 | 5989 ft | 199 kts | 144° |
| 2026-05-04 14:08 | 33.74854 | -80.87569 | 5725 ft | 200 kts | 144° |
| 2026-05-04 14:08 | 33.73779 | -80.86527 | 5463 ft | 199 kts | 143° |
| 2026-05-04 14:08 | 33.72701 | -80.85484 | 5209 ft | 200 kts | 145° |
| 2026-05-04 14:08 | 33.71606 | -80.84444 | 4932 ft | 201 kts | 144° |
| 2026-05-04 14:09 | 33.69433 | -80.82308 | 4371 ft | 202 kts | 143° |
| 2026-05-04 14:09 | 33.68350 | -80.81269 | 4133 ft | 201 kts | 144° |
| 2026-05-04 14:10 | 33.66374 | -80.78814 | 3590 ft | 207 kts | 135° |
| 2026-05-04 14:10 | 33.65413 | -80.77538 | 3309 ft | 206 kts | 135° |
| 2026-05-04 14:10 | 33.64461 | -80.76263 | 3034 ft | 204 kts | 135° |
| 2026-05-04 14:10 | 33.63493 | -80.75032 | 2776 ft | 202 kts | 136° |
| 2026-05-04 14:11 | 33.62529 | -80.73800 | 2511 ft | 203 kts | 139° |
| 2026-05-04 14:11 | 33.60210 | -80.72628 | 2011 ft | 166 kts | 179° |
| 2026-05-04 14:11 | 33.59138 | -80.72711 | 1998 ft | 146 kts | 196° |
| 2026-05-04 14:12 | 33.58179 | -80.73054 | 1992 ft | 142 kts | 208° |
| 2026-05-04 14:12 | 33.57356 | -80.73651 | 1983 ft | 137 kts | 220° |
| 2026-05-04 14:12 | 33.56033 | -80.75080 | 1988 ft | 121 kts | 225° |
| 2026-05-04 14:13 | 33.55428 | -80.75756 | 1994 ft | 119 kts | 226° |
| 2026-05-04 14:13 | 33.54796 | -80.76428 | 1987 ft | 123 kts | 224° |
| 2026-05-04 14:13 | 33.54170 | -80.77102 | 2000 ft | 123 kts | 225° |
| 2026-05-04 14:13 | 33.53531 | -80.77802 | 1996 ft | 124 kts | 224° |
| 2026-05-04 14:14 | 33.52863 | -80.78537 | 1852 ft | 134 kts | 224° |
| 2026-05-04 14:14 | 33.51427 | -80.80104 | 1493 ft | 145 kts | 225° |
| 2026-05-04 14:14 | 33.50667 | -80.80925 | 1286 ft | 149 kts | 223° |
| 2026-05-04 14:15 | 33.49291 | -80.82419 | 928 ft | 102 kts | 223° |
| 2026-05-04 14:15 | 33.48282 | -80.83511 | 672 ft | 100 kts | 224° |
| 2026-05-04 14:16 | 33.47254 | -80.84632 | 412 ft | 100 kts | 223° |
| 2026-05-04 14:16 | 33.46738 | -80.85193 | 275 ft | 99 kts | 223° |
| 2026-05-04 14:17 | 33.46108 | -80.85881 | 178 ft | 22 kts | 223° |
| 2026-05-04 14:17 | 33.46015 | -80.85992 | 179 ft | 14 kts | 250° |
| 2026-05-04 14:17 | 33.46121 | -80.85964 | 177 ft | 14 kts | 43° |
| 2026-05-04 14:18 | 33.46205 | -80.85870 | 177 ft | 19 kts | 43° |
| 2026-05-04 14:18 | 33.46384 | -80.85716 | 176 ft | 8 kts | 324° |
| 2026-05-04 14:19 | 33.46414 | -80.85695 | 176 ft | 0 kts | 138° |